sensor_id;sensor_type;location;lat;lon;timestamp;P1;durP1;ratioP1;P2;durP2;ratioP2
6479;SDS011;71753;48.772;9.148;2023-12-20T00:01:07;2.90;;;1.53;;
6479;SDS011;71753;48.772;9.148;2023-12-20T00:03:34;1.93;;;1.40;;
6479;SDS011;71753;48.772;9.148;2023-12-20T00:06:00;1.40;;;1.30;;
6479;SDS011;71753;48.772;9.148;2023-12-20T00:08:27;1.87;;;1.60;;
6479;SDS011;71753;48.772;9.148;2023-12-20T00:10:53;1.60;;;1.40;;
6479;SDS011;71753;48.772;9.148;2023-12-20T00:13:21;1.33;;;1.23;;
6479;SDS011;71753;48.772;9.148;2023-12-20T00:15:48;1.60;;;1.50;;
6479;SDS011;71753;48.772;9.148;2023-12-20T00:18:15;1.50;;;1.30;;
6479;SDS011;71753;48.772;9.148;2023-12-20T00:20:41;1.53;;;1.40;;
6479;SDS011;71753;48.772;9.148;2023-12-20T00:23:08;2.00;;;1.43;;
6479;SDS011;71753;48.772;9.148;2023-12-20T00:25:34;1.40;;;1.30;;
6479;SDS011;71753;48.772;9.148;2023-12-20T00:28:01;1.60;;;1.40;;
6479;SDS011;71753;48.772;9.148;2023-12-20T00:30:29;1.80;;;1.57;;
6479;SDS011;71753;48.772;9.148;2023-12-20T00:32:56;1.40;;;1.30;;
6479;SDS011;71753;48.772;9.148;2023-12-20T00:35:23;1.80;;;1.30;;
6479;SDS011;71753;48.772;9.148;2023-12-20T00:37:50;1.40;;;1.30;;
6479;SDS011;71753;48.772;9.148;2023-12-20T00:40:16;2.60;;;1.50;;
6479;SDS011;71753;48.772;9.148;2023-12-20T00:42:43;1.63;;;1.50;;
6479;SDS011;71753;48.772;9.148;2023-12-20T00:45:11;1.50;;;1.40;;
6479;SDS011;71753;48.772;9.148;2023-12-20T00:47:40;2.03;;;1.60;;
6479;SDS011;71753;48.772;9.148;2023-12-20T00:50:07;1.77;;;1.67;;
6479;SDS011;71753;48.772;9.148;2023-12-20T00:52:33;1.27;;;1.17;;
6479;SDS011;71753;48.772;9.148;2023-12-20T00:55:00;1.70;;;1.40;;
6479;SDS011;71753;48.772;9.148;2023-12-20T00:57:26;1.50;;;1.40;;
6479;SDS011;71753;48.772;9.148;2023-12-20T00:59:53;1.57;;;1.27;;
6479;SDS011;71753;48.772;9.148;2023-12-20T01:02:19;1.40;;;1.30;;
6479;SDS011;71753;48.772;9.148;2023-12-20T01:04:47;2.93;;;1.40;;
6479;SDS011;71753;48.772;9.148;2023-12-20T01:07:14;1.53;;;1.27;;
6479;SDS011;71753;48.772;9.148;2023-12-20T01:09:41;1.17;;;1.07;;
6479;SDS011;71753;48.772;9.148;2023-12-20T01:12:07;1.33;;;1.23;;
6479;SDS011;71753;48.772;9.148;2023-12-20T01:14:33;1.50;;;1.20;;
6479;SDS011;71753;48.772;9.148;2023-12-20T01:17:00;1.40;;;1.23;;
6479;SDS011;71753;48.772;9.148;2023-12-20T01:19:27;1.30;;;1.20;;
6479;SDS011;71753;48.772;9.148;2023-12-20T01:21:56;1.70;;;1.40;;
6479;SDS011;71753;48.772;9.148;2023-12-20T01:24:22;1.40;;;1.30;;
6479;SDS011;71753;48.772;9.148;2023-12-20T01:26:49;1.27;;;1.10;;
6479;SDS011;71753;48.772;9.148;2023-12-20T01:29:16;1.47;;;1.37;;
6479;SDS011;71753;48.772;9.148;2023-12-20T01:31:42;1.43;;;1.33;;
6479;SDS011;71753;48.772;9.148;2023-12-20T01:34:09;1.53;;;1.23;;
6479;SDS011;71753;48.772;9.148;2023-12-20T01:36:35;1.40;;;1.30;;
6479;SDS011;71753;48.772;9.148;2023-12-20T01:39:03;1.30;;;1.20;;
6479;SDS011;71753;48.772;9.148;2023-12-20T01:41:30;1.43;;;1.30;;
6479;SDS011;71753;48.772;9.148;2023-12-20T01:43:57;1.40;;;1.30;;
6479;SDS011;71753;48.772;9.148;2023-12-20T01:46:23;2.30;;;1.30;;
6479;SDS011;71753;48.772;9.148;2023-12-20T01:48:51;1.43;;;1.30;;
6479;SDS011;71753;48.772;9.148;2023-12-20T01:51:18;1.37;;;1.20;;
6479;SDS011;71753;48.772;9.148;2023-12-20T01:53:46;1.20;;;1.10;;
6479;SDS011;71753;48.772;9.148;2023-12-20T01:56:14;1.30;;;1.20;;
6479;SDS011;71753;48.772;9.148;2023-12-20T01:58:43;1.63;;;1.40;;
6479;SDS011;71753;48.772;9.148;2023-12-20T02:01:11;2.57;;;1.50;;
6479;SDS011;71753;48.772;9.148;2023-12-20T02:03:38;1.30;;;1.20;;
6479;SDS011;71753;48.772;9.148;2023-12-20T02:06:05;1.57;;;1.30;;
6479;SDS011;71753;48.772;9.148;2023-12-20T02:08:32;2.67;;;1.70;;
6479;SDS011;71753;48.772;9.148;2023-12-20T02:10:58;1.27;;;1.17;;
6479;SDS011;71753;48.772;9.148;2023-12-20T02:13:27;1.30;;;1.20;;
6479;SDS011;71753;48.772;9.148;2023-12-20T02:15:54;1.70;;;1.20;;
6479;SDS011;71753;48.772;9.148;2023-12-20T02:18:21;1.47;;;1.30;;
6479;SDS011;71753;48.772;9.148;2023-12-20T02:20:48;1.60;;;1.37;;
6479;SDS011;71753;48.772;9.148;2023-12-20T02:23:16;1.30;;;1.20;;
6479;SDS011;71753;48.772;9.148;2023-12-20T02:25:42;1.43;;;1.27;;
6479;SDS011;71753;48.772;9.148;2023-12-20T02:28:09;1.30;;;1.20;;
6479;SDS011;71753;48.772;9.148;2023-12-20T02:30:36;1.20;;;1.10;;
6479;SDS011;71753;48.772;9.148;2023-12-20T02:33:03;1.20;;;1.10;;
6479;SDS011;71753;48.772;9.148;2023-12-20T02:35:32;1.30;;;1.17;;
6479;SDS011;71753;48.772;9.148;2023-12-20T02:37:59;1.20;;;1.10;;
6479;SDS011;71753;48.772;9.148;2023-12-20T02:40:27;1.23;;;1.13;;
6479;SDS011;71753;48.772;9.148;2023-12-20T02:42:54;1.30;;;1.10;;
6479;SDS011;71753;48.772;9.148;2023-12-20T02:45:20;1.30;;;1.20;;
6479;SDS011;71753;48.772;9.148;2023-12-20T02:47:47;1.53;;;1.27;;
6479;SDS011;71753;48.772;9.148;2023-12-20T02:50:13;1.23;;;1.13;;
6479;SDS011;71753;48.772;9.148;2023-12-20T02:52:40;1.30;;;1.20;;
6479;SDS011;71753;48.772;9.148;2023-12-20T02:55:09;1.20;;;1.10;;
6479;SDS011;71753;48.772;9.148;2023-12-20T02:57:36;2.73;;;1.30;;
6479;SDS011;71753;48.772;9.148;2023-12-20T03:00:07;2.23;;;1.40;;
6479;SDS011;71753;48.772;9.148;2023-12-20T03:02:34;1.50;;;1.40;;
6479;SDS011;71753;48.772;9.148;2023-12-20T03:05:01;1.30;;;1.20;;
6479;SDS011;71753;48.772;9.148;2023-12-20T03:07:27;1.00;;;1.00;;
6479;SDS011;71753;48.772;9.148;2023-12-20T03:09:54;1.00;;;1.00;;
6479;SDS011;71753;48.772;9.148;2023-12-20T03:12:21;1.17;;;1.07;;
6479;SDS011;71753;48.772;9.148;2023-12-20T03:14:49;1.30;;;1.20;;
6479;SDS011;71753;48.772;9.148;2023-12-20T03:17:15;1.30;;;1.20;;
6479;SDS011;71753;48.772;9.148;2023-12-20T03:19:42;1.30;;;1.20;;
6479;SDS011;71753;48.772;9.148;2023-12-20T03:22:09;1.57;;;1.30;;
6479;SDS011;71753;48.772;9.148;2023-12-20T03:24:35;1.20;;;1.10;;
6479;SDS011;71753;48.772;9.148;2023-12-20T03:27:02;1.20;;;1.10;;
6479;SDS011;71753;48.772;9.148;2023-12-20T03:29:29;2.57;;;0.97;;
6479;SDS011;71753;48.772;9.148;2023-12-20T03:31:57;0.80;;;0.80;;
6479;SDS011;71753;48.772;9.148;2023-12-20T03:34:23;0.90;;;0.90;;
6479;SDS011;71753;48.772;9.148;2023-12-20T03:36:50;0.90;;;0.90;;
6479;SDS011;71753;48.772;9.148;2023-12-20T03:39:17;0.80;;;0.80;;
6479;SDS011;71753;48.772;9.148;2023-12-20T03:41:43;0.70;;;0.70;;
6479;SDS011;71753;48.772;9.148;2023-12-20T03:44:10;0.80;;;0.80;;
6479;SDS011;71753;48.772;9.148;2023-12-20T03:46:36;0.53;;;0.53;;
6479;SDS011;71753;48.772;9.148;2023-12-20T03:49:04;0.90;;;0.90;;
6479;SDS011;71753;48.772;9.148;2023-12-20T03:51:31;0.97;;;0.90;;
6479;SDS011;71753;48.772;9.148;2023-12-20T03:53:58;0.80;;;0.80;;
6479;SDS011;71753;48.772;9.148;2023-12-20T03:56:24;0.70;;;0.70;;
6479;SDS011;71753;48.772;9.148;2023-12-20T03:58:51;0.60;;;0.60;;
6479;SDS011;71753;48.772;9.148;2023-12-20T04:01:17;0.90;;;0.90;;
6479;SDS011;71753;48.772;9.148;2023-12-20T04:03:44;0.70;;;0.70;;
6479;SDS011;71753;48.772;9.148;2023-12-20T04:06:17;0.70;;;0.70;;
6479;SDS011;71753;48.772;9.148;2023-12-20T04:08:44;0.80;;;0.80;;
6479;SDS011;71753;48.772;9.148;2023-12-20T04:11:10;1.60;;;0.93;;
6479;SDS011;71753;48.772;9.148;2023-12-20T04:13:37;0.60;;;0.60;;
6479;SDS011;71753;48.772;9.148;2023-12-20T04:16:03;0.93;;;0.77;;
6479;SDS011;71753;48.772;9.148;2023-12-20T04:18:30;0.80;;;0.80;;
6479;SDS011;71753;48.772;9.148;2023-12-20T04:20:57;0.90;;;0.90;;
6479;SDS011;71753;48.772;9.148;2023-12-20T04:23:25;0.80;;;0.80;;
6479;SDS011;71753;48.772;9.148;2023-12-20T04:25:51;0.80;;;0.80;;
6479;SDS011;71753;48.772;9.148;2023-12-20T04:28:18;0.80;;;0.80;;
6479;SDS011;71753;48.772;9.148;2023-12-20T04:30:44;0.70;;;0.70;;
6479;SDS011;71753;48.772;9.148;2023-12-20T04:33:11;1.90;;;0.80;;
6479;SDS011;71753;48.772;9.148;2023-12-20T04:35:38;0.80;;;0.80;;
6479;SDS011;71753;48.772;9.148;2023-12-20T04:38:06;0.70;;;0.70;;
6479;SDS011;71753;48.772;9.148;2023-12-20T04:40:34;0.90;;;0.90;;
6479;SDS011;71753;48.772;9.148;2023-12-20T04:43:00;0.70;;;0.70;;
6479;SDS011;71753;48.772;9.148;2023-12-20T04:45:27;0.80;;;0.80;;
6479;SDS011;71753;48.772;9.148;2023-12-20T04:47:54;0.80;;;0.80;;
6479;SDS011;71753;48.772;9.148;2023-12-20T04:50:21;0.60;;;0.60;;
6479;SDS011;71753;48.772;9.148;2023-12-20T04:52:48;0.70;;;0.70;;
6479;SDS011;71753;48.772;9.148;2023-12-20T04:55:14;0.80;;;0.80;;
6479;SDS011;71753;48.772;9.148;2023-12-20T04:57:42;0.70;;;0.70;;
6479;SDS011;71753;48.772;9.148;2023-12-20T05:00:09;0.80;;;0.80;;
6479;SDS011;71753;48.772;9.148;2023-12-20T05:02:37;0.70;;;0.70;;
6479;SDS011;71753;48.772;9.148;2023-12-20T05:05:04;0.60;;;0.60;;
6479;SDS011;71753;48.772;9.148;2023-12-20T05:07:31;0.80;;;0.80;;
6479;SDS011;71753;48.772;9.148;2023-12-20T05:09:57;0.80;;;0.80;;
6479;SDS011;71753;48.772;9.148;2023-12-20T05:12:24;0.80;;;0.80;;
6479;SDS011;71753;48.772;9.148;2023-12-20T05:17:20;0.80;;;0.80;;
6479;SDS011;71753;48.772;9.148;2023-12-20T05:19:46;0.93;;;0.80;;
6479;SDS011;71753;48.772;9.148;2023-12-20T05:22:13;0.80;;;0.80;;
6479;SDS011;71753;48.772;9.148;2023-12-20T05:24:40;0.70;;;0.70;;
6479;SDS011;71753;48.772;9.148;2023-12-20T05:27:06;0.70;;;0.70;;
6479;SDS011;71753;48.772;9.148;2023-12-20T05:29:33;0.80;;;0.80;;
6479;SDS011;71753;48.772;9.148;2023-12-20T05:32:01;0.70;;;0.70;;
6479;SDS011;71753;48.772;9.148;2023-12-20T05:34:29;0.77;;;0.77;;
6479;SDS011;71753;48.772;9.148;2023-12-20T05:36:57;0.80;;;0.80;;
6479;SDS011;71753;48.772;9.148;2023-12-20T05:39:24;0.80;;;0.80;;
6479;SDS011;71753;48.772;9.148;2023-12-20T05:41:50;0.73;;;0.73;;
6479;SDS011;71753;48.772;9.148;2023-12-20T05:44:17;1.13;;;1.13;;
6479;SDS011;71753;48.772;9.148;2023-12-20T05:46:44;0.70;;;0.70;;
6479;SDS011;71753;48.772;9.148;2023-12-20T05:49:12;0.80;;;0.80;;
6479;SDS011;71753;48.772;9.148;2023-12-20T05:51:39;0.70;;;0.70;;
6479;SDS011;71753;48.772;9.148;2023-12-20T05:54:05;0.90;;;0.90;;
6479;SDS011;71753;48.772;9.148;2023-12-20T05:56:32;0.90;;;0.90;;
6479;SDS011;71753;48.772;9.148;2023-12-20T05:58:59;0.80;;;0.80;;
6479;SDS011;71753;48.772;9.148;2023-12-20T06:01:25;1.67;;;1.00;;
6479;SDS011;71753;48.772;9.148;2023-12-20T06:03:52;0.90;;;0.90;;
6479;SDS011;71753;48.772;9.148;2023-12-20T06:06:20;0.80;;;0.80;;
6479;SDS011;71753;48.772;9.148;2023-12-20T06:08:46;1.10;;;1.00;;
6479;SDS011;71753;48.772;9.148;2023-12-20T06:11:13;1.10;;;1.00;;
6479;SDS011;71753;48.772;9.148;2023-12-20T06:13:40;0.97;;;0.97;;
6479;SDS011;71753;48.772;9.148;2023-12-20T06:16:06;0.90;;;0.90;;
6479;SDS011;71753;48.772;9.148;2023-12-20T06:18:33;0.83;;;0.83;;
6479;SDS011;71753;48.772;9.148;2023-12-20T06:21:01;0.83;;;0.83;;
6479;SDS011;71753;48.772;9.148;2023-12-20T06:23:29;1.00;;;1.00;;
6479;SDS011;71753;48.772;9.148;2023-12-20T06:25:55;1.30;;;1.20;;
6479;SDS011;71753;48.772;9.148;2023-12-20T06:28:22;1.20;;;1.10;;
6479;SDS011;71753;48.772;9.148;2023-12-20T06:30:49;1.20;;;1.10;;
6479;SDS011;71753;48.772;9.148;2023-12-20T06:33:17;1.00;;;1.00;;
6479;SDS011;71753;48.772;9.148;2023-12-20T06:35:44;1.20;;;1.10;;
6479;SDS011;71753;48.772;9.148;2023-12-20T06:38:10;1.10;;;1.10;;
6479;SDS011;71753;48.772;9.148;2023-12-20T06:40:38;0.90;;;0.90;;
6479;SDS011;71753;48.772;9.148;2023-12-20T06:43:05;1.10;;;1.00;;
6479;SDS011;71753;48.772;9.148;2023-12-20T06:45:32;1.00;;;1.00;;
6479;SDS011;71753;48.772;9.148;2023-12-20T06:47:58;0.80;;;0.80;;
6479;SDS011;71753;48.772;9.148;2023-12-20T06:50:25;1.20;;;1.10;;
6479;SDS011;71753;48.772;9.148;2023-12-20T06:52:52;2.37;;;1.27;;
6479;SDS011;71753;48.772;9.148;2023-12-20T06:55:19;1.20;;;1.10;;
6479;SDS011;71753;48.772;9.148;2023-12-20T06:57:47;1.20;;;1.10;;
6479;SDS011;71753;48.772;9.148;2023-12-20T07:00:14;1.00;;;1.00;;
6479;SDS011;71753;48.772;9.148;2023-12-20T07:02:41;1.00;;;1.00;;
6479;SDS011;71753;48.772;9.148;2023-12-20T07:05:09;1.00;;;1.00;;
6479;SDS011;71753;48.772;9.148;2023-12-20T07:07:36;1.47;;;1.10;;
6479;SDS011;71753;48.772;9.148;2023-12-20T07:10:03;1.00;;;0.80;;
6479;SDS011;71753;48.772;9.148;2023-12-20T07:12:30;0.83;;;0.83;;
6479;SDS011;71753;48.772;9.148;2023-12-20T07:14:58;2.17;;;0.97;;
6479;SDS011;71753;48.772;9.148;2023-12-20T07:17:24;1.50;;;1.20;;
6479;SDS011;71753;48.772;9.148;2023-12-20T07:19:51;0.90;;;0.90;;
6479;SDS011;71753;48.772;9.148;2023-12-20T07:22:18;1.20;;;1.10;;
6479;SDS011;71753;48.772;9.148;2023-12-20T07:24:44;1.20;;;1.10;;
6479;SDS011;71753;48.772;9.148;2023-12-20T07:27:11;1.20;;;1.10;;
6479;SDS011;71753;48.772;9.148;2023-12-20T07:29:38;1.17;;;1.07;;
6479;SDS011;71753;48.772;9.148;2023-12-20T07:32:06;1.50;;;1.40;;
6479;SDS011;71753;48.772;9.148;2023-12-20T07:34:33;2.80;;;2.30;;
6479;SDS011;71753;48.772;9.148;2023-12-20T07:37:00;1.80;;;1.47;;
6479;SDS011;71753;48.772;9.148;2023-12-20T07:39:26;1.60;;;1.50;;
6479;SDS011;71753;48.772;9.148;2023-12-20T07:41:53;2.23;;;1.90;;
6479;SDS011;71753;48.772;9.148;2023-12-20T07:44:19;3.20;;;1.87;;
6479;SDS011;71753;48.772;9.148;2023-12-20T07:46:46;2.83;;;2.00;;
6479;SDS011;71753;48.772;9.148;2023-12-20T07:49:15;2.47;;;2.03;;
6479;SDS011;71753;48.772;9.148;2023-12-20T07:51:41;2.37;;;1.83;;
6479;SDS011;71753;48.772;9.148;2023-12-20T07:54:08;2.53;;;2.00;;
6479;SDS011;71753;48.772;9.148;2023-12-20T07:56:34;2.07;;;1.83;;
6479;SDS011;71753;48.772;9.148;2023-12-20T07:59:01;2.63;;;2.03;;
6479;SDS011;71753;48.772;9.148;2023-12-20T08:01:28;3.13;;;2.40;;
6479;SDS011;71753;48.772;9.148;2023-12-20T08:03:55;2.00;;;1.80;;
6479;SDS011;71753;48.772;9.148;2023-12-20T08:06:23;5.00;;;2.23;;
6479;SDS011;71753;48.772;9.148;2023-12-20T08:08:50;2.57;;;1.90;;
6479;SDS011;71753;48.772;9.148;2023-12-20T08:11:16;2.83;;;2.30;;
6479;SDS011;71753;48.772;9.148;2023-12-20T08:13:43;3.73;;;2.20;;
6479;SDS011;71753;48.772;9.148;2023-12-20T08:16:10;2.97;;;2.00;;
6479;SDS011;71753;48.772;9.148;2023-12-20T08:18:38;4.63;;;2.40;;
6479;SDS011;71753;48.772;9.148;2023-12-20T08:21:05;3.50;;;2.50;;
6479;SDS011;71753;48.772;9.148;2023-12-20T08:23:34;2.67;;;2.03;;
6479;SDS011;71753;48.772;9.148;2023-12-20T08:26:03;3.47;;;2.57;;
6479;SDS011;71753;48.772;9.148;2023-12-20T08:28:30;2.70;;;2.10;;
6479;SDS011;71753;48.772;9.148;2023-12-20T08:30:57;2.53;;;1.90;;
6479;SDS011;71753;48.772;9.148;2023-12-20T08:33:24;2.90;;;2.00;;
6479;SDS011;71753;48.772;9.148;2023-12-20T08:35:50;2.47;;;2.10;;
6479;SDS011;71753;48.772;9.148;2023-12-20T08:38:17;2.33;;;1.60;;
6479;SDS011;71753;48.772;9.148;2023-12-20T08:40:45;3.57;;;2.00;;
6479;SDS011;71753;48.772;9.148;2023-12-20T08:43:11;2.67;;;2.00;;
6479;SDS011;71753;48.772;9.148;2023-12-20T08:45:38;2.50;;;1.97;;
6479;SDS011;71753;48.772;9.148;2023-12-20T08:48:05;2.00;;;1.80;;
6479;SDS011;71753;48.772;9.148;2023-12-20T08:50:32;2.70;;;2.00;;
6479;SDS011;71753;48.772;9.148;2023-12-20T08:52:59;3.87;;;2.53;;
6479;SDS011;71753;48.772;9.148;2023-12-20T08:55:26;2.60;;;2.33;;
6479;SDS011;71753;48.772;9.148;2023-12-20T08:57:55;3.27;;;2.27;;
6479;SDS011;71753;48.772;9.148;2023-12-20T09:00:22;3.03;;;2.40;;
6479;SDS011;71753;48.772;9.148;2023-12-20T09:02:49;4.07;;;2.33;;
6479;SDS011;71753;48.772;9.148;2023-12-20T09:05:16;5.47;;;2.57;;
6479;SDS011;71753;48.772;9.148;2023-12-20T09:07:42;3.87;;;2.57;;
6479;SDS011;71753;48.772;9.148;2023-12-20T09:10:09;4.03;;;2.20;;
6479;SDS011;71753;48.772;9.148;2023-12-20T09:12:36;3.23;;;2.30;;
6479;SDS011;71753;48.772;9.148;2023-12-20T09:15:06;2.37;;;2.07;;
6479;SDS011;71753;48.772;9.148;2023-12-20T09:17:33;2.30;;;2.10;;
6479;SDS011;71753;48.772;9.148;2023-12-20T09:20:00;2.53;;;2.00;;
6479;SDS011;71753;48.772;9.148;2023-12-20T09:22:27;2.93;;;2.07;;
6479;SDS011;71753;48.772;9.148;2023-12-20T09:24:54;3.00;;;1.80;;
6479;SDS011;71753;48.772;9.148;2023-12-20T09:27:20;2.23;;;1.63;;
6479;SDS011;71753;48.772;9.148;2023-12-20T09:29:47;3.00;;;1.87;;
6479;SDS011;71753;48.772;9.148;2023-12-20T09:32:16;3.27;;;2.10;;
6479;SDS011;71753;48.772;9.148;2023-12-20T09:34:42;1.80;;;1.47;;
6479;SDS011;71753;48.772;9.148;2023-12-20T09:37:09;3.80;;;1.60;;
6479;SDS011;71753;48.772;9.148;2023-12-20T09:39:35;1.97;;;1.60;;
6479;SDS011;71753;48.772;9.148;2023-12-20T09:42:02;4.23;;;1.60;;
6479;SDS011;71753;48.772;9.148;2023-12-20T09:44:30;2.53;;;1.50;;
6479;SDS011;71753;48.772;9.148;2023-12-20T09:46:58;2.67;;;1.40;;
6479;SDS011;71753;48.772;9.148;2023-12-20T09:49:28;2.10;;;1.50;;
6479;SDS011;71753;48.772;9.148;2023-12-20T09:51:56;2.53;;;1.67;;
6479;SDS011;71753;48.772;9.148;2023-12-20T09:54:23;1.40;;;1.30;;
6479;SDS011;71753;48.772;9.148;2023-12-20T09:56:50;1.77;;;1.40;;
6479;SDS011;71753;48.772;9.148;2023-12-20T09:59:16;3.07;;;1.20;;
6479;SDS011;71753;48.772;9.148;2023-12-20T10:01:43;4.07;;;1.73;;
6479;SDS011;71753;48.772;9.148;2023-12-20T10:04:10;2.23;;;1.40;;
6479;SDS011;71753;48.772;9.148;2023-12-20T10:06:40;2.80;;;1.50;;
6479;SDS011;71753;48.772;9.148;2023-12-20T10:09:07;1.73;;;1.30;;
6479;SDS011;71753;48.772;9.148;2023-12-20T10:11:35;2.03;;;1.63;;
6479;SDS011;71753;48.772;9.148;2023-12-20T10:14:03;1.60;;;1.40;;
6479;SDS011;71753;48.772;9.148;2023-12-20T10:16:30;4.20;;;1.50;;
6479;SDS011;71753;48.772;9.148;2023-12-20T10:18:58;1.70;;;1.50;;
6479;SDS011;71753;48.772;9.148;2023-12-20T10:21:26;1.47;;;1.30;;
6479;SDS011;71753;48.772;9.148;2023-12-20T10:23:54;3.27;;;1.33;;
6479;SDS011;71753;48.772;9.148;2023-12-20T10:26:22;1.67;;;1.10;;
6479;SDS011;71753;48.772;9.148;2023-12-20T10:28:50;2.93;;;1.70;;
6479;SDS011;71753;48.772;9.148;2023-12-20T10:31:27;1.80;;;1.30;;
6479;SDS011;71753;48.772;9.148;2023-12-20T10:33:56;2.77;;;1.30;;
6479;SDS011;71753;48.772;9.148;2023-12-20T10:36:24;4.37;;;1.60;;
6479;SDS011;71753;48.772;9.148;2023-12-20T10:38:52;1.80;;;1.30;;
6479;SDS011;71753;48.772;9.148;2023-12-20T10:41:23;2.03;;;1.33;;
6479;SDS011;71753;48.772;9.148;2023-12-20T10:43:52;3.10;;;1.40;;
6479;SDS011;71753;48.772;9.148;2023-12-20T10:46:21;2.50;;;1.60;;
6479;SDS011;71753;48.772;9.148;2023-12-20T10:48:48;2.40;;;1.60;;
6479;SDS011;71753;48.772;9.148;2023-12-20T10:51:18;1.43;;;1.30;;
6479;SDS011;71753;48.772;9.148;2023-12-20T10:53:45;3.30;;;1.30;;
6479;SDS011;71753;48.772;9.148;2023-12-20T10:56:15;4.73;;;1.87;;
6479;SDS011;71753;48.772;9.148;2023-12-20T10:58:44;3.80;;;1.67;;
6479;SDS011;71753;48.772;9.148;2023-12-20T11:01:12;2.63;;;1.50;;
6479;SDS011;71753;48.772;9.148;2023-12-20T11:03:41;2.03;;;1.40;;
6479;SDS011;71753;48.772;9.148;2023-12-20T11:06:12;1.40;;;1.30;;
6479;SDS011;71753;48.772;9.148;2023-12-20T11:08:46;2.10;;;1.53;;
6479;SDS011;71753;48.772;9.148;2023-12-20T11:11:20;2.20;;;1.40;;
6479;SDS011;71753;48.772;9.148;2023-12-20T11:13:55;2.40;;;1.50;;
6479;SDS011;71753;48.772;9.148;2023-12-20T11:16:26;3.00;;;1.40;;
6479;SDS011;71753;48.772;9.148;2023-12-20T11:18:53;1.60;;;1.50;;
6479;SDS011;71753;48.772;9.148;2023-12-20T11:21:20;1.73;;;1.43;;
6479;SDS011;71753;48.772;9.148;2023-12-20T11:23:47;2.20;;;1.50;;
6479;SDS011;71753;48.772;9.148;2023-12-20T11:26:15;3.73;;;1.50;;
6479;SDS011;71753;48.772;9.148;2023-12-20T11:28:42;4.27;;;1.77;;
6479;SDS011;71753;48.772;9.148;2023-12-20T11:31:12;2.23;;;1.40;;
6479;SDS011;71753;48.772;9.148;2023-12-20T11:33:40;1.70;;;1.60;;
6479;SDS011;71753;48.772;9.148;2023-12-20T11:36:12;3.20;;;1.63;;
6479;SDS011;71753;48.772;9.148;2023-12-20T11:38:49;2.00;;;1.53;;
6479;SDS011;71753;48.772;9.148;2023-12-20T11:41:21;2.13;;;1.60;;
6479;SDS011;71753;48.772;9.148;2023-12-20T11:43:48;1.57;;;1.47;;
6479;SDS011;71753;48.772;9.148;2023-12-20T11:46:20;3.03;;;1.50;;
6479;SDS011;71753;48.772;9.148;2023-12-20T11:48:47;2.40;;;1.60;;
6479;SDS011;71753;48.772;9.148;2023-12-20T11:51:14;2.07;;;1.50;;
6479;SDS011;71753;48.772;9.148;2023-12-20T11:53:41;1.50;;;1.40;;
6479;SDS011;71753;48.772;9.148;2023-12-20T11:56:08;1.83;;;1.50;;
6479;SDS011;71753;48.772;9.148;2023-12-20T11:58:35;3.53;;;1.60;;
6479;SDS011;71753;48.772;9.148;2023-12-20T12:01:02;1.53;;;1.43;;
6479;SDS011;71753;48.772;9.148;2023-12-20T12:03:33;1.50;;;1.40;;
6479;SDS011;71753;48.772;9.148;2023-12-20T12:06:00;3.73;;;1.60;;
6479;SDS011;71753;48.772;9.148;2023-12-20T12:08:29;3.03;;;1.43;;
6479;SDS011;71753;48.772;9.148;2023-12-20T12:10:56;2.13;;;1.40;;
6479;SDS011;71753;48.772;9.148;2023-12-20T12:13:23;3.20;;;1.50;;
6479;SDS011;71753;48.772;9.148;2023-12-20T12:15:52;1.83;;;1.43;;
6479;SDS011;71753;48.772;9.148;2023-12-20T12:18:19;1.90;;;1.47;;
6479;SDS011;71753;48.772;9.148;2023-12-20T12:20:47;1.87;;;1.40;;
6479;SDS011;71753;48.772;9.148;2023-12-20T12:23:14;2.43;;;1.37;;
6479;SDS011;71753;48.772;9.148;2023-12-20T12:25:40;4.03;;;1.60;;
6479;SDS011;71753;48.772;9.148;2023-12-20T12:28:07;1.43;;;1.23;;
6479;SDS011;71753;48.772;9.148;2023-12-20T12:30:34;6.83;;;1.90;;
6479;SDS011;71753;48.772;9.148;2023-12-20T12:33:00;1.30;;;1.20;;
6479;SDS011;71753;48.772;9.148;2023-12-20T12:35:27;2.87;;;1.40;;
6479;SDS011;71753;48.772;9.148;2023-12-20T12:37:55;2.43;;;1.50;;
6479;SDS011;71753;48.772;9.148;2023-12-20T12:40:25;1.60;;;1.50;;
6479;SDS011;71753;48.772;9.148;2023-12-20T12:42:51;1.73;;;1.43;;
6479;SDS011;71753;48.772;9.148;2023-12-20T12:45:18;2.10;;;1.30;;
6479;SDS011;71753;48.772;9.148;2023-12-20T12:47:44;3.10;;;1.57;;
6479;SDS011;71753;48.772;9.148;2023-12-20T12:50:11;2.03;;;1.50;;
6479;SDS011;71753;48.772;9.148;2023-12-20T12:52:38;2.10;;;1.33;;
6479;SDS011;71753;48.772;9.148;2023-12-20T12:55:06;1.30;;;1.20;;
6479;SDS011;71753;48.772;9.148;2023-12-20T12:57:33;1.47;;;1.27;;
6479;SDS011;71753;48.772;9.148;2023-12-20T13:00:00;5.17;;;1.20;;
6479;SDS011;71753;48.772;9.148;2023-12-20T13:02:28;1.50;;;1.30;;
6479;SDS011;71753;48.772;9.148;2023-12-20T13:04:54;2.23;;;1.30;;
6479;SDS011;71753;48.772;9.148;2023-12-20T13:07:21;2.17;;;1.30;;
6479;SDS011;71753;48.772;9.148;2023-12-20T13:09:47;1.97;;;1.50;;
6479;SDS011;71753;48.772;9.148;2023-12-20T13:12:15;1.47;;;1.27;;
6479;SDS011;71753;48.772;9.148;2023-12-20T13:14:42;4.00;;;1.50;;
6479;SDS011;71753;48.772;9.148;2023-12-20T13:17:10;2.97;;;1.23;;
6479;SDS011;71753;48.772;9.148;2023-12-20T13:19:37;1.97;;;1.40;;
6479;SDS011;71753;48.772;9.148;2023-12-20T13:22:03;1.47;;;1.30;;
6479;SDS011;71753;48.772;9.148;2023-12-20T13:24:30;1.27;;;1.13;;
6479;SDS011;71753;48.772;9.148;2023-12-20T13:26:57;1.30;;;1.20;;
6479;SDS011;71753;48.772;9.148;2023-12-20T13:29:25;1.77;;;1.20;;
6479;SDS011;71753;48.772;9.148;2023-12-20T13:31:52;1.63;;;1.20;;
6479;SDS011;71753;48.772;9.148;2023-12-20T13:34:19;1.67;;;1.30;;
6479;SDS011;71753;48.772;9.148;2023-12-20T13:36:46;3.20;;;1.30;;
6479;SDS011;71753;48.772;9.148;2023-12-20T13:39:15;1.63;;;1.30;;
6479;SDS011;71753;48.772;9.148;2023-12-20T13:41:41;4.33;;;1.33;;
6479;SDS011;71753;48.772;9.148;2023-12-20T13:44:08;2.43;;;1.10;;
6479;SDS011;71753;48.772;9.148;2023-12-20T13:46:37;2.27;;;1.40;;
6479;SDS011;71753;48.772;9.148;2023-12-20T13:49:03;1.47;;;1.20;;
6479;SDS011;71753;48.772;9.148;2023-12-20T13:51:30;1.30;;;1.17;;
6479;SDS011;71753;48.772;9.148;2023-12-20T13:53:57;1.73;;;1.37;;
6479;SDS011;71753;48.772;9.148;2023-12-20T13:56:24;2.00;;;1.20;;
6479;SDS011;71753;48.772;9.148;2023-12-20T13:58:51;3.17;;;1.20;;
6479;SDS011;71753;48.772;9.148;2023-12-20T14:01:17;1.30;;;1.20;;
6479;SDS011;71753;48.772;9.148;2023-12-20T14:03:45;1.10;;;1.00;;
6479;SDS011;71753;48.772;9.148;2023-12-20T14:06:12;1.37;;;1.20;;
6479;SDS011;71753;48.772;9.148;2023-12-20T14:08:40;1.70;;;1.20;;
6479;SDS011;71753;48.772;9.148;2023-12-20T14:11:07;1.93;;;1.20;;
6479;SDS011;71753;48.772;9.148;2023-12-20T14:13:34;1.27;;;1.17;;
6479;SDS011;71753;48.772;9.148;2023-12-20T14:16:00;1.10;;;1.00;;
6479;SDS011;71753;48.772;9.148;2023-12-20T14:18:29;3.07;;;1.20;;
6479;SDS011;71753;48.772;9.148;2023-12-20T14:20:57;1.23;;;1.10;;
6479;SDS011;71753;48.772;9.148;2023-12-20T14:23:23;1.43;;;1.10;;
6479;SDS011;71753;48.772;9.148;2023-12-20T14:25:50;1.30;;;1.20;;
6479;SDS011;71753;48.772;9.148;2023-12-20T14:28:17;1.87;;;1.20;;
6479;SDS011;71753;48.772;9.148;2023-12-20T14:30:43;1.20;;;1.10;;
6479;SDS011;71753;48.772;9.148;2023-12-20T14:33:10;1.67;;;1.30;;
6479;SDS011;71753;48.772;9.148;2023-12-20T14:35:36;1.40;;;1.20;;
6479;SDS011;71753;48.772;9.148;2023-12-20T14:38:05;2.10;;;1.10;;
6479;SDS011;71753;48.772;9.148;2023-12-20T14:40:31;4.40;;;1.53;;
6479;SDS011;71753;48.772;9.148;2023-12-20T14:42:58;1.70;;;1.30;;
6479;SDS011;71753;48.772;9.148;2023-12-20T14:45:25;1.37;;;1.20;;
6479;SDS011;71753;48.772;9.148;2023-12-20T14:47:52;4.73;;;1.73;;
6479;SDS011;71753;48.772;9.148;2023-12-20T14:50:19;2.00;;;1.20;;
6479;SDS011;71753;48.772;9.148;2023-12-20T14:52:46;3.03;;;1.30;;
6479;SDS011;71753;48.772;9.148;2023-12-20T14:55:14;1.30;;;1.20;;
6479;SDS011;71753;48.772;9.148;2023-12-20T14:57:42;3.00;;;1.30;;
6479;SDS011;71753;48.772;9.148;2023-12-20T15:00:09;1.30;;;1.20;;
6479;SDS011;71753;48.772;9.148;2023-12-20T15:02:40;2.00;;;1.20;;